sensor_id;sensor_type;location;lat;lon;timestamp;pressure;altitude;pressure_sealevel;temperature;humidity
34566;BME280;20803;42.676;26.348;2023-12-04T00:01:50;99113.91;;;7.93;80.09
34566;BME280;20803;42.676;26.348;2023-12-04T00:04:16;99115.88;;;7.89;81.15
34566;BME280;20803;42.676;26.348;2023-12-04T00:06:41;99103.94;;;7.82;81.24
34566;BME280;20803;42.676;26.348;2023-12-04T00:09:07;99117.81;;;7.85;81.84
34566;BME280;20803;42.676;26.348;2023-12-04T00:11:33;99121.59;;;7.63;81.19
34566;BME280;20803;42.676;26.348;2023-12-04T00:13:59;99128.63;;;7.53;82.61
34566;BME280;20803;42.676;26.348;2023-12-04T00:16:25;99130.31;;;7.65;82.77
34566;BME280;20803;42.676;26.348;2023-12-04T00:18:50;99138.66;;;7.72;82.80
34566;BME280;20803;42.676;26.348;2023-12-04T00:21:16;99140.34;;;7.87;83.10
34566;BME280;20803;42.676;26.348;2023-12-04T00:23:41;99142.75;;;7.89;81.84
34566;BME280;20803;42.676;26.348;2023-12-04T00:26:07;99151.91;;;7.96;80.54
34566;BME280;20803;42.676;26.348;2023-12-04T00:28:35;99158.16;;;7.86;80.11
34566;BME280;20803;42.676;26.348;2023-12-04T00:31:05;99154.97;;;7.88;80.22
34566;BME280;20803;42.676;26.348;2023-12-04T00:33:31;99155.28;;;7.75;78.16
34566;BME280;20803;42.676;26.348;2023-12-04T00:35:57;99153.13;;;7.55;78.57
34566;BME280;20803;42.676;26.348;2023-12-04T00:38:23;99155.13;;;7.17;80.12
34566;BME280;20803;42.676;26.348;2023-12-04T00:40:48;99169.56;;;7.00;82.52
34566;BME280;20803;42.676;26.348;2023-12-04T00:43:14;99181.22;;;6.86;81.55
34566;BME280;20803;42.676;26.348;2023-12-04T00:45:39;99171.63;;;6.47;84.16
34566;BME280;20803;42.676;26.348;2023-12-04T00:48:05;99169.06;;;6.31;86.07
34566;BME280;20803;42.676;26.348;2023-12-04T00:50:31;99185.88;;;6.49;86.00
34566;BME280;20803;42.676;26.348;2023-12-04T00:52:56;99177.81;;;6.67;86.41
34566;BME280;20803;42.676;26.348;2023-12-04T00:55:21;99176.69;;;6.71;85.80
34566;BME280;20803;42.676;26.348;2023-12-04T00:57:47;99175.97;;;6.78;85.00
34566;BME280;20803;42.676;26.348;2023-12-04T01:00:13;99162.25;;;6.85;84.75
34566;BME280;20803;42.676;26.348;2023-12-04T01:02:39;99148.88;;;6.87;84.39
34566;BME280;20803;42.676;26.348;2023-12-04T01:05:05;99155.16;;;6.84;81.51
34566;BME280;20803;42.676;26.348;2023-12-04T01:07:31;99158.75;;;6.88;82.87
34566;BME280;20803;42.676;26.348;2023-12-04T01:09:56;99151.19;;;6.81;81.82
34566;BME280;20803;42.676;26.348;2023-12-04T01:12:21;99159.38;;;6.74;79.90
34566;BME280;20803;42.676;26.348;2023-12-04T01:14:47;99176.03;;;6.81;79.90
34566;BME280;20803;42.676;26.348;2023-12-04T01:17:12;99177.34;;;6.91;78.59
34566;BME280;20803;42.676;26.348;2023-12-04T01:19:38;99162.06;;;7.01;77.78
34566;BME280;20803;42.676;26.348;2023-12-04T01:22:05;99166.88;;;7.07;76.57
34566;BME280;20803;42.676;26.348;2023-12-04T01:24:31;99168.03;;;7.06;76.15
34566;BME280;20803;42.676;26.348;2023-12-04T01:26:56;99169.59;;;7.04;74.09
34566;BME280;20803;42.676;26.348;2023-12-04T01:29:22;99172.13;;;6.82;74.19
34566;BME280;20803;42.676;26.348;2023-12-04T01:31:47;99185.16;;;6.56;74.85
34566;BME280;20803;42.676;26.348;2023-12-04T01:34:13;99178.59;;;6.37;75.66
34566;BME280;20803;42.676;26.348;2023-12-04T01:36:41;99174.34;;;6.17;77.17
34566;BME280;20803;42.676;26.348;2023-12-04T01:39:07;99183.66;;;6.05;79.31
34566;BME280;20803;42.676;26.348;2023-12-04T01:41:32;99182.38;;;5.99;79.72
34566;BME280;20803;42.676;26.348;2023-12-04T01:43:58;99186.28;;;5.98;79.25
34566;BME280;20803;42.676;26.348;2023-12-04T01:46:26;99186.25;;;5.95;79.14
34566;BME280;20803;42.676;26.348;2023-12-04T01:48:52;99200.75;;;5.92;80.44
34566;BME280;20803;42.676;26.348;2023-12-04T01:51:19;99201.31;;;6.01;80.94
34566;BME280;20803;42.676;26.348;2023-12-04T01:53:45;99201.00;;;6.06;80.56
34566;BME280;20803;42.676;26.348;2023-12-04T01:56:11;99201.56;;;6.15;79.50
34566;BME280;20803;42.676;26.348;2023-12-04T01:58:38;99199.28;;;6.21;80.31
34566;BME280;20803;42.676;26.348;2023-12-04T02:01:05;99213.88;;;6.21;79.88
34566;BME280;20803;42.676;26.348;2023-12-04T02:03:30;99209.91;;;6.22;79.97
34566;BME280;20803;42.676;26.348;2023-12-04T02:05:59;99201.84;;;6.36;79.56
34566;BME280;20803;42.676;26.348;2023-12-04T02:08:25;99197.59;;;6.42;79.23
34566;BME280;20803;42.676;26.348;2023-12-04T02:10:51;99187.03;;;6.48;79.12
34566;BME280;20803;42.676;26.348;2023-12-04T02:13:16;99191.19;;;6.35;77.57
34566;BME280;20803;42.676;26.348;2023-12-04T02:15:42;99199.31;;;6.24;78.99
34566;BME280;20803;42.676;26.348;2023-12-04T02:18:07;99199.41;;;6.31;79.83
34566;BME280;20803;42.676;26.348;2023-12-04T02:20:34;99205.59;;;6.21;79.52
34566;BME280;20803;42.676;26.348;2023-12-04T02:23:03;99218.41;;;6.10;80.70
34566;BME280;20803;42.676;26.348;2023-12-04T02:25:29;99215.63;;;6.10;80.86
34566;BME280;20803;42.676;26.348;2023-12-04T02:27:57;99210.88;;;6.07;80.00
34566;BME280;20803;42.676;26.348;2023-12-04T02:30:24;99206.84;;;5.78;81.99
34566;BME280;20803;42.676;26.348;2023-12-04T02:32:55;99212.53;;;5.66;83.35
34566;BME280;20803;42.676;26.348;2023-12-04T02:35:23;99216.69;;;5.56;84.32
34566;BME280;20803;42.676;26.348;2023-12-04T02:37:51;99225.59;;;5.50;86.11
34566;BME280;20803;42.676;26.348;2023-12-04T02:40:17;99220.19;;;5.53;86.25
34566;BME280;20803;42.676;26.348;2023-12-04T02:42:42;99229.66;;;5.56;83.91
34566;BME280;20803;42.676;26.348;2023-12-04T02:45:08;99238.22;;;5.51;83.43
34566;BME280;20803;42.676;26.348;2023-12-04T02:47:33;99231.72;;;5.40;81.58
34566;BME280;20803;42.676;26.348;2023-12-04T02:49:59;99228.59;;;5.18;84.47
34566;BME280;20803;42.676;26.348;2023-12-04T02:52:24;99244.31;;;5.18;84.56
34566;BME280;20803;42.676;26.348;2023-12-04T02:54:50;99254.88;;;5.16;83.93
34566;BME280;20803;42.676;26.348;2023-12-04T02:57:15;99259.25;;;5.17;83.17
34566;BME280;20803;42.676;26.348;2023-12-04T02:59:41;99241.81;;;5.13;82.60
34566;BME280;20803;42.676;26.348;2023-12-04T03:02:06;99243.88;;;5.16;83.40
34566;BME280;20803;42.676;26.348;2023-12-04T03:04:32;99245.69;;;5.08;81.38
34566;BME280;20803;42.676;26.348;2023-12-04T03:06:58;99231.84;;;5.05;80.92
34566;BME280;20803;42.676;26.348;2023-12-04T03:09:23;99240.38;;;5.19;81.10
34566;BME280;20803;42.676;26.348;2023-12-04T03:11:49;99240.75;;;5.17;80.88
34566;BME280;20803;42.676;26.348;2023-12-04T03:14:14;99250.88;;;5.32;80.11
34566;BME280;20803;42.676;26.348;2023-12-04T03:16:40;99256.84;;;5.35;79.79
34566;BME280;20803;42.676;26.348;2023-12-04T03:19:05;99265.38;;;5.49;80.22
34566;BME280;20803;42.676;26.348;2023-12-04T03:21:31;99266.38;;;5.60;78.86
34566;BME280;20803;42.676;26.348;2023-12-04T03:23:56;99266.38;;;5.83;75.90
34566;BME280;20803;42.676;26.348;2023-12-04T03:26:22;99277.75;;;6.00;74.53
34566;BME280;20803;42.676;26.348;2023-12-04T03:28:47;99279.69;;;6.23;78.61
34566;BME280;20803;42.676;26.348;2023-12-04T03:31:13;99276.66;;;6.28;77.46
34566;BME280;20803;42.676;26.348;2023-12-04T03:33:38;99277.19;;;6.14;72.33
34566;BME280;20803;42.676;26.348;2023-12-04T03:36:04;99276.25;;;6.29;76.98
34566;BME280;20803;42.676;26.348;2023-12-04T03:38:30;99263.94;;;6.23;74.30
34566;BME280;20803;42.676;26.348;2023-12-04T03:40:55;99271.66;;;6.37;71.25
34566;BME280;20803;42.676;26.348;2023-12-04T03:43:21;99263.84;;;6.42;68.10
34566;BME280;20803;42.676;26.348;2023-12-04T03:45:47;99263.53;;;6.47;67.73
34566;BME280;20803;42.676;26.348;2023-12-04T03:48:12;99260.47;;;6.53;67.19
34566;BME280;20803;42.676;26.348;2023-12-04T03:50:38;99269.31;;;6.65;68.73
34566;BME280;20803;42.676;26.348;2023-12-04T03:53:03;99267.88;;;6.75;64.93
34566;BME280;20803;42.676;26.348;2023-12-04T03:55:29;99279.03;;;6.82;63.22
34566;BME280;20803;42.676;26.348;2023-12-04T03:57:55;99284.16;;;6.83;62.05
34566;BME280;20803;42.676;26.348;2023-12-04T04:00:21;99289.09;;;6.97;62.00
34566;BME280;20803;42.676;26.348;2023-12-04T04:02:48;99293.19;;;7.07;60.16
34566;BME280;20803;42.676;26.348;2023-12-04T04:05:14;99279.53;;;6.91;60.76
34566;BME280;20803;42.676;26.348;2023-12-04T04:07:39;99293.81;;;6.97;61.46
34566;BME280;20803;42.676;26.348;2023-12-04T04:10:06;99302.69;;;7.09;62.26
34566;BME280;20803;42.676;26.348;2023-12-04T04:12:32;99303.16;;;7.15;63.11
34566;BME280;20803;42.676;26.348;2023-12-04T04:14:57;99309.84;;;7.14;63.89
34566;BME280;20803;42.676;26.348;2023-12-04T04:17:23;99305.97;;;7.18;63.23
34566;BME280;20803;42.676;26.348;2023-12-04T04:19:55;99306.06;;;7.25;59.09
34566;BME280;20803;42.676;26.348;2023-12-04T04:22:21;99304.94;;;7.30;58.45
34566;BME280;20803;42.676;26.348;2023-12-04T04:24:47;99303.78;;;7.31;59.30
34566;BME280;20803;42.676;26.348;2023-12-04T04:27:16;99315.22;;;7.33;57.77
34566;BME280;20803;42.676;26.348;2023-12-04T04:29:41;99320.38;;;7.05;54.82
34566;BME280;20803;42.676;26.348;2023-12-04T04:32:07;99323.47;;;7.00;53.95
34566;BME280;20803;42.676;26.348;2023-12-04T04:34:32;99330.13;;;6.95;55.33
34566;BME280;20803;42.676;26.348;2023-12-04T04:36:58;99318.53;;;6.86;57.99
34566;BME280;20803;42.676;26.348;2023-12-04T04:39:23;99324.69;;;7.02;58.85
34566;BME280;20803;42.676;26.348;2023-12-04T04:41:49;99318.63;;;7.19;59.71
34566;BME280;20803;42.676;26.348;2023-12-04T04:44:14;99327.97;;;7.11;58.71
34566;BME280;20803;42.676;26.348;2023-12-04T04:46:40;99318.78;;;7.04;57.02
34566;BME280;20803;42.676;26.348;2023-12-04T04:49:05;99330.31;;;7.09;56.65
34566;BME280;20803;42.676;26.348;2023-12-04T04:51:32;99329.63;;;7.16;56.67
34566;BME280;20803;42.676;26.348;2023-12-04T04:53:59;99336.84;;;7.24;54.83
34566;BME280;20803;42.676;26.348;2023-12-04T04:56:25;99348.03;;;7.34;54.12
34566;BME280;20803;42.676;26.348;2023-12-04T04:58:50;99351.59;;;7.35;55.37
34566;BME280;20803;42.676;26.348;2023-12-04T05:01:16;99358.19;;;7.27;55.06
34566;BME280;20803;42.676;26.348;2023-12-04T05:03:41;99364.06;;;7.22;53.98
34566;BME280;20803;42.676;26.348;2023-12-04T05:06:07;99365.88;;;7.11;52.54
34566;BME280;20803;42.676;26.348;2023-12-04T05:08:32;99363.31;;;6.99;52.50
34566;BME280;20803;42.676;26.348;2023-12-04T05:10:58;99367.53;;;6.89;52.79
34566;BME280;20803;42.676;26.348;2023-12-04T05:13:23;99369.31;;;6.78;52.78
34566;BME280;20803;42.676;26.348;2023-12-04T05:15:49;99378.59;;;6.89;53.11
34566;BME280;20803;42.676;26.348;2023-12-04T05:18:14;99374.91;;;6.81;52.71
34566;BME280;20803;42.676;26.348;2023-12-04T05:20:40;99385.16;;;6.81;51.87
34566;BME280;20803;42.676;26.348;2023-12-04T05:23:05;99384.72;;;6.79;51.81
34566;BME280;20803;42.676;26.348;2023-12-04T05:25:31;99390.03;;;6.65;51.38
34566;BME280;20803;42.676;26.348;2023-12-04T05:27:56;99374.16;;;6.58;51.61
34566;BME280;20803;42.676;26.348;2023-12-04T05:30:22;99382.66;;;6.72;51.53
34566;BME280;20803;42.676;26.348;2023-12-04T05:32:47;99391.06;;;6.79;51.50
34566;BME280;20803;42.676;26.348;2023-12-04T05:35:15;99393.56;;;6.88;51.43
34566;BME280;20803;42.676;26.348;2023-12-04T05:37:41;99392.09;;;6.94;51.71
34566;BME280;20803;42.676;26.348;2023-12-04T05:40:07;99395.69;;;6.98;51.83
34566;BME280;20803;42.676;26.348;2023-12-04T05:42:33;99399.50;;;6.90;53.50
34566;BME280;20803;42.676;26.348;2023-12-04T05:44:58;99414.91;;;6.91;55.23
34566;BME280;20803;42.676;26.348;2023-12-04T05:47:25;99407.91;;;6.97;55.81
34566;BME280;20803;42.676;26.348;2023-12-04T05:49:51;99412.16;;;6.91;55.09
34566;BME280;20803;42.676;26.348;2023-12-04T05:52:16;99407.69;;;7.09;55.13
34566;BME280;20803;42.676;26.348;2023-12-04T05:54:42;99425.53;;;7.15;55.56
34566;BME280;20803;42.676;26.348;2023-12-04T05:57:07;99435.13;;;7.21;55.58
34566;BME280;20803;42.676;26.348;2023-12-04T05:59:33;99422.63;;;7.31;55.41
34566;BME280;20803;42.676;26.348;2023-12-04T06:01:59;99417.16;;;7.34;54.60
34566;BME280;20803;42.676;26.348;2023-12-04T06:04:25;99428.75;;;7.17;53.90
34566;BME280;20803;42.676;26.348;2023-12-04T06:06:50;99439.84;;;7.21;54.39
34566;BME280;20803;42.676;26.348;2023-12-04T06:09:16;99455.84;;;7.08;56.10
34566;BME280;20803;42.676;26.348;2023-12-04T06:11:42;99443.69;;;7.13;56.42
34566;BME280;20803;42.676;26.348;2023-12-04T06:14:07;99455.59;;;7.17;55.07
34566;BME280;20803;42.676;26.348;2023-12-04T06:16:33;99451.09;;;7.09;53.82
34566;BME280;20803;42.676;26.348;2023-12-04T06:18:58;99454.81;;;6.93;54.22
34566;BME280;20803;42.676;26.348;2023-12-04T06:21:24;99456.22;;;7.07;52.74
34566;BME280;20803;42.676;26.348;2023-12-04T06:23:50;99459.41;;;7.09;50.17
34566;BME280;20803;42.676;26.348;2023-12-04T06:26:16;99456.50;;;7.24;49.49
34566;BME280;20803;42.676;26.348;2023-12-04T06:28:43;99464.94;;;7.35;49.51
34566;BME280;20803;42.676;26.348;2023-12-04T06:31:09;99461.84;;;7.40;49.37
34566;BME280;20803;42.676;26.348;2023-12-04T06:33:35;99460.53;;;7.30;49.24
34566;BME280;20803;42.676;26.348;2023-12-04T06:36:02;99462.81;;;7.25;49.90
34566;BME280;20803;42.676;26.348;2023-12-04T06:38:31;99464.03;;;7.27;51.80
34566;BME280;20803;42.676;26.348;2023-12-04T06:40:58;99458.50;;;7.54;53.45
34566;BME280;20803;42.676;26.348;2023-12-04T06:43:25;99464.16;;;7.64;53.53
34566;BME280;20803;42.676;26.348;2023-12-04T06:45:51;99480.53;;;7.77;52.15
34566;BME280;20803;42.676;26.348;2023-12-04T06:48:17;99478.00;;;7.94;50.76
34566;BME280;20803;42.676;26.348;2023-12-04T06:50:43;99461.56;;;8.05;50.30
34566;BME280;20803;42.676;26.348;2023-12-04T06:53:08;99468.47;;;8.22;50.68
34566;BME280;20803;42.676;26.348;2023-12-04T06:55:34;99475.38;;;8.35;50.68
34566;BME280;20803;42.676;26.348;2023-12-04T06:57:59;99476.28;;;8.46;50.17
34566;BME280;20803;42.676;26.348;2023-12-04T07:00:25;99475.59;;;8.56;49.91
34566;BME280;20803;42.676;26.348;2023-12-04T07:02:52;99481.09;;;8.52;48.93
34566;BME280;20803;42.676;26.348;2023-12-04T07:05:19;99480.31;;;8.55;50.47
34566;BME280;20803;42.676;26.348;2023-12-04T07:07:44;99483.00;;;8.48;50.82
34566;BME280;20803;42.676;26.348;2023-12-04T07:10:10;99481.19;;;8.60;50.21
34566;BME280;20803;42.676;26.348;2023-12-04T07:12:43;99486.28;;;8.58;50.66
34566;BME280;20803;42.676;26.348;2023-12-04T07:15:10;99487.00;;;8.51;49.59
34566;BME280;20803;42.676;26.348;2023-12-04T07:17:38;99494.91;;;8.49;49.60
34566;BME280;20803;42.676;26.348;2023-12-04T07:20:05;99500.16;;;8.61;49.14
34566;BME280;20803;42.676;26.348;2023-12-04T07:22:34;99506.84;;;8.57;49.91
34566;BME280;20803;42.676;26.348;2023-12-04T07:24:59;99511.97;;;8.54;50.38
34566;BME280;20803;42.676;26.348;2023-12-04T07:27:25;99509.72;;;8.67;48.98
34566;BME280;20803;42.676;26.348;2023-12-04T07:29:51;99525.25;;;8.72;49.27
34566;BME280;20803;42.676;26.348;2023-12-04T07:32:16;99528.72;;;8.32;49.54
34566;BME280;20803;42.676;26.348;2023-12-04T07:34:43;99527.34;;;8.19;49.59
34566;BME280;20803;42.676;26.348;2023-12-04T07:37:09;99528.63;;;7.95;50.50
34566;BME280;20803;42.676;26.348;2023-12-04T07:39:34;99542.41;;;7.91;50.08
34566;BME280;20803;42.676;26.348;2023-12-04T07:41:59;99543.38;;;7.76;50.57
34566;BME280;20803;42.676;26.348;2023-12-04T07:44:25;99544.75;;;7.63;51.17
34566;BME280;20803;42.676;26.348;2023-12-04T07:46:51;99538.25;;;7.52;50.10
34566;BME280;20803;42.676;26.348;2023-12-04T07:49:16;99544.66;;;7.56;50.42
34566;BME280;20803;42.676;26.348;2023-12-04T07:51:42;99545.44;;;7.56;51.07
34566;BME280;20803;42.676;26.348;2023-12-04T07:54:07;99546.94;;;7.50;50.42
34566;BME280;20803;42.676;26.348;2023-12-04T07:56:33;99549.00;;;7.57;50.36
34566;BME280;20803;42.676;26.348;2023-12-04T07:59:00;99552.56;;;7.57;50.71
34566;BME280;20803;42.676;26.348;2023-12-04T08:01:26;99544.38;;;7.64;50.89
34566;BME280;20803;42.676;26.348;2023-12-04T08:03:51;99543.25;;;7.69;52.09
34566;BME280;20803;42.676;26.348;2023-12-04T08:06:17;99527.00;;;7.64;51.84
34566;BME280;20803;42.676;26.348;2023-12-04T08:08:44;99518.09;;;7.78;50.91
34566;BME280;20803;42.676;26.348;2023-12-04T08:11:10;99529.22;;;7.81;49.21
34566;BME280;20803;42.676;26.348;2023-12-04T08:13:36;99526.44;;;7.81;49.39
34566;BME280;20803;42.676;26.348;2023-12-04T08:16:02;99530.41;;;7.80;51.33
34566;BME280;20803;42.676;26.348;2023-12-04T08:18:28;99530.47;;;7.87;50.78
34566;BME280;20803;42.676;26.348;2023-12-04T08:20:53;99527.47;;;7.99;50.38
34566;BME280;20803;42.676;26.348;2023-12-04T08:23:19;99530.34;;;8.06;50.08
34566;BME280;20803;42.676;26.348;2023-12-04T08:25:45;99538.84;;;8.21;50.39
34566;BME280;20803;42.676;26.348;2023-12-04T08:28:11;99536.31;;;8.08;50.30
34566;BME280;20803;42.676;26.348;2023-12-04T08:30:36;99536.28;;;8.05;50.70
34566;BME280;20803;42.676;26.348;2023-12-04T08:33:02;99533.44;;;8.01;51.29
34566;BME280;20803;42.676;26.348;2023-12-04T08:35:27;99536.69;;;8.07;49.43
34566;BME280;20803;42.676;26.348;2023-12-04T08:37:53;99537.78;;;8.29;49.10
34566;BME280;20803;42.676;26.348;2023-12-04T08:40:18;99543.38;;;8.32;49.95
34566;BME280;20803;42.676;26.348;2023-12-04T08:42:44;99542.88;;;8.27;49.37
34566;BME280;20803;42.676;26.348;2023-12-04T08:45:10;99547.41;;;8.38;49.51
34566;BME280;20803;42.676;26.348;2023-12-04T08:47:36;99545.97;;;8.51;50.81
34566;BME280;20803;42.676;26.348;2023-12-04T08:50:02;99546.34;;;8.50;50.15
34566;BME280;20803;42.676;26.348;2023-12-04T08:52:28;99552.97;;;8.42;51.21
34566;BME280;20803;42.676;26.348;2023-12-04T08:54:53;99543.56;;;8.46;51.79
34566;BME280;20803;42.676;26.348;2023-12-04T08:57:19;99546.56;;;8.34;51.21
34566;BME280;20803;42.676;26.348;2023-12-04T08:59:45;99545.41;;;8.35;51.45
34566;BME280;20803;42.676;26.348;2023-12-04T09:02:11;99560.22;;;8.24;52.11
34566;BME280;20803;42.676;26.348;2023-12-04T09:04:36;99548.41;;;7.97;53.92
34566;BME280;20803;42.676;26.348;2023-12-04T09:07:02;99551.66;;;8.02;55.80
34566;BME280;20803;42.676;26.348;2023-12-04T09:09:28;99548.84;;;7.99;58.39
34566;BME280;20803;42.676;26.348;2023-12-04T09:11:54;99544.06;;;7.96;59.05
34566;BME280;20803;42.676;26.348;2023-12-04T09:14:19;99545.59;;;7.93;59.91
34566;BME280;20803;42.676;26.348;2023-12-04T09:16:45;99540.81;;;7.90;60.66
34566;BME280;20803;42.676;26.348;2023-12-04T09:19:10;99540.81;;;7.90;60.16
34566;BME280;20803;42.676;26.348;2023-12-04T09:21:36;99532.50;;;7.90;60.35
34566;BME280;20803;42.676;26.348;2023-12-04T09:24:01;99531.00;;;7.96;60.12
34566;BME280;20803;42.676;26.348;2023-12-04T09:26:27;99533.09;;;8.03;60.55
34566;BME280;20803;42.676;26.348;2023-12-04T09:28:52;99535.16;;;8.09;61.33
34566;BME280;20803;42.676;26.348;2023-12-04T09:31:18;99533.13;;;8.06;61.63
34566;BME280;20803;42.676;26.348;2023-12-04T09:33:44;99535.47;;;8.04;59.31
34566;BME280;20803;42.676;26.348;2023-12-04T09:36:10;99530.31;;;8.03;58.41
34566;BME280;20803;42.676;26.348;2023-12-04T09:38:35;99528.38;;;8.07;58.01
34566;BME280;20803;42.676;26.348;2023-12-04T09:41:01;99525.84;;;7.95;63.31
34566;BME280;20803;42.676;26.348;2023-12-04T09:43:31;99521.94;;;7.99;66.49
34566;BME280;20803;42.676;26.348;2023-12-04T09:45:57;99516.91;;;8.05;68.42
34566;BME280;20803;42.676;26.348;2023-12-04T09:48:27;99521.41;;;7.87;71.61
34566;BME280;20803;42.676;26.348;2023-12-04T09:50:53;99522.72;;;7.70;72.01
34566;BME280;20803;42.676;26.348;2023-12-04T09:53:19;99526.88;;;7.57;73.96
34566;BME280;20803;42.676;26.348;2023-12-04T09:55:49;99523.63;;;7.51;75.13
34566;BME280;20803;42.676;26.348;2023-12-04T09:58:14;99514.91;;;7.23;77.08
34566;BME280;20803;42.676;26.348;2023-12-04T10:00:42;99520.63;;;7.11;77.76
34566;BME280;20803;42.676;26.348;2023-12-04T10:03:08;99525.66;;;7.05;76.59
34566;BME280;20803;42.676;26.348;2023-12-04T10:05:33;99528.19;;;6.91;78.06
34566;BME280;20803;42.676;26.348;2023-12-04T10:07:59;99530.25;;;6.75;79.42
34566;BME280;20803;42.676;26.348;2023-12-04T10:10:24;99532.59;;;6.73;79.66
34566;BME280;20803;42.676;26.348;2023-12-04T10:12:50;99530.47;;;6.66;80.55
34566;BME280;20803;42.676;26.348;2023-12-04T10:15:16;99534.06;;;6.47;81.15
34566;BME280;20803;42.676;26.348;2023-12-04T10:17:42;99533.06;;;6.36;82.97
34566;BME280;20803;42.676;26.348;2023-12-04T10:20:14;99541.44;;;6.21;85.08
34566;BME280;20803;42.676;26.348;2023-12-04T10:22:54;99535.53;;;6.22;84.63
34566;BME280;20803;42.676;26.348;2023-12-04T10:25:20;99544.75;;;6.30;85.24
34566;BME280;20803;42.676;26.348;2023-12-04T10:27:46;99539.75;;;6.16;86.37
34566;BME280;20803;42.676;26.348;2023-12-04T10:30:26;99542.16;;;6.18;86.50
34566;BME280;20803;42.676;26.348;2023-12-04T10:33:04;99544.84;;;6.14;87.08
34566;BME280;20803;42.676;26.348;2023-12-04T10:35:32;99544.25;;;6.24;85.92
34566;BME280;20803;42.676;26.348;2023-12-04T10:37:59;99534.06;;;6.28;85.92
34566;BME280;20803;42.676;26.348;2023-12-04T10:40:29;99540.94;;;6.15;87.86
34566;BME280;20803;42.676;26.348;2023-12-04T10:45:34;99531.69;;;6.46;86.98
34566;BME280;20803;42.676;26.348;2023-12-04T10:48:00;99532.41;;;6.43;86.34
34566;BME280;20803;42.676;26.348;2023-12-04T10:50:34;99527.31;;;6.64;85.45
34566;BME280;20803;42.676;26.348;2023-12-04T10:53:01;99536.78;;;6.86;84.20
34566;BME280;20803;42.676;26.348;2023-12-04T10:55:30;99525.50;;;6.95;80.54
34566;BME280;20803;42.676;26.348;2023-12-04T10:57:56;99519.84;;;6.87;81.82
34566;BME280;20803;42.676;26.348;2023-12-04T11:00:22;99529.91;;;6.76;83.45
34566;BME280;20803;42.676;26.348;2023-12-04T11:02:49;99514.63;;;6.82;81.94
34566;BME280;20803;42.676;26.348;2023-12-04T11:05:19;99521.44;;;6.88;82.27
34566;BME280;20803;42.676;26.348;2023-12-04T11:08:08;99525.72;;;7.09;81.79
34566;BME280;20803;42.676;26.348;2023-12-04T11:10:41;99523.75;;;7.09;82.08
34566;BME280;20803;42.676;26.348;2023-12-04T11:13:17;99535.16;;;7.08;82.65
34566;BME280;20803;42.676;26.348;2023-12-04T11:15:48;99526.53;;;7.09;82.19
34566;BME280;20803;42.676;26.348;2023-12-04T11:18:16;99533.94;;;7.28;79.74
34566;BME280;20803;42.676;26.348;2023-12-04T11:20:51;99536.47;;;6.91;80.33
34566;BME280;20803;42.676;26.348;2023-12-04T11:23:17;99540.16;;;6.76;82.56
34566;BME280;20803;42.676;26.348;2023-12-04T11:25:44;99533.34;;;6.92;83.11
34566;BME280;20803;42.676;26.348;2023-12-04T11:28:10;99533.97;;;7.05;82.16
34566;BME280;20803;42.676;26.348;2023-12-04T11:30:37;99528.16;;;7.14;81.61
34566;BME280;20803;42.676;26.348;2023-12-04T11:33:05;99534.75;;;7.28;78.91
34566;BME280;20803;42.676;26.348;2023-12-04T11:35:30;99533.91;;;7.24;79.25
34566;BME280;20803;42.676;26.348;2023-12-04T11:37:56;99531.81;;;7.18;79.87
34566;BME280;20803;42.676;26.348;2023-12-04T11:40:22;99523.50;;;7.18;79.75
34566;BME280;20803;42.676;26.348;2023-12-04T11:42:48;99527.59;;;7.01;80.21
34566;BME280;20803;42.676;26.348;2023-12-04T11:45:20;99528.63;;;6.93;80.20
34566;BME280;20803;42.676;26.348;2023-12-04T11:47:55;99526.78;;;7.01;79.25
34566;BME280;20803;42.676;26.348;2023-12-04T11:50:22;99523.03;;;7.12;80.48
34566;BME280;20803;42.676;26.348;2023-12-04T11:52:49;99514.75;;;7.12;81.31
34566;BME280;20803;42.676;26.348;2023-12-04T11:55:22;99525.22;;;7.26;81.02
34566;BME280;20803;42.676;26.348;2023-12-04T11:57:49;99512.75;;;7.36;79.83
34566;BME280;20803;42.676;26.348;2023-12-04T12:00:19;99515.31;;;7.48;78.33
34566;BME280;20803;42.676;26.348;2023-12-04T12:05:13;99514.47;;;7.44;75.41
34566;BME280;20803;42.676;26.348;2023-12-04T12:07:39;99517.34;;;7.28;76.57
34566;BME280;20803;42.676;26.348;2023-12-04T12:10:04;99513.31;;;6.99;79.92
34566;BME280;20803;42.676;26.348;2023-12-04T12:12:30;99518.50;;;7.27;78.07
34566;BME280;20803;42.676;26.348;2023-12-04T12:14:57;99512.63;;;7.28;78.60
34566;BME280;20803;42.676;26.348;2023-12-04T12:17:22;99513.38;;;7.25;79.53
34566;BME280;20803;42.676;26.348;2023-12-04T12:19:48;99512.75;;;7.36;79.12
34566;BME280;20803;42.676;26.348;2023-12-04T12:22:14;99514.22;;;7.29;78.83
34566;BME280;20803;42.676;26.348;2023-12-04T12:24:39;99511.78;;;7.02;79.69
34566;BME280;20803;42.676;26.348;2023-12-04T12:27:05;99515.72;;;7.01;79.75
34566;BME280;20803;42.676;26.348;2023-12-04T12:29:30;99515.78;;;7.04;79.65
34566;BME280;20803;42.676;26.348;2023-12-04T12:31:56;99519.59;;;7.19;79.44
34566;BME280;20803;42.676;26.348;2023-12-04T12:34:21;99516.66;;;7.34;78.39
34566;BME280;20803;42.676;26.348;2023-12-04T12:36:47;99509.44;;;7.53;76.74
34566;BME280;20803;42.676;26.348;2023-12-04T12:39:13;99515.66;;;7.46;76.34
34566;BME280;20803;42.676;26.348;2023-12-04T12:41:47;99521.44;;;7.11;78.93
34566;BME280;20803;42.676;26.348;2023-12-04T12:44:12;99521.59;;;7.22;78.57
34566;BME280;20803;42.676;26.348;2023-12-04T12:46:40;99523.69;;;7.28;78.11
34566;BME280;20803;42.676;26.348;2023-12-04T12:49:06;99523.47;;;7.41;76.75
34566;BME280;20803;42.676;26.348;2023-12-04T12:51:31;99528.31;;;7.47;76.36
34566;BME280;20803;42.676;26.348;2023-12-04T12:53:57;99524.47;;;7.29;77.30
34566;BME280;20803;42.676;26.348;2023-12-04T12:56:24;99522.41;;;7.22;78.49
34566;BME280;20803;42.676;26.348;2023-12-04T12:58:50;99527.69;;;7.31;77.79
34566;BME280;20803;42.676;26.348;2023-12-04T13:01:15;99520.97;;;7.32;77.64